Time;durP1;ratioP1;P1;durP2;ratioP2;P2;SDS_P1;SDS_P2;PMS_P1;PMS_P2;Temp;Humidity;BMP_temperature;BMP_pressure;BME280_temperature;BME280_humidity;BME280_pressure;Samples;Min_cycle;Max_cycle;Signal;HPM_P1;HPM_P2
2023/06/25 00:01:26;;;;;;;18.13;16.20;;;17.90;99.90;;;;;;5050031;28;20889;-89
2023/06/25 00:03:52;;;;;;;16.40;14.80;;;17.80;99.90;;;;;;5049429;28;20568;-89
2023/06/25 00:06:19;;;;;;;15.88;14.27;;;17.60;99.90;;;;;;5067284;28;20408;-89
2023/06/25 00:08:45;;;;;;;15.93;14.40;;;17.60;99.90;;;;;;5048973;28;20410;-91
2023/06/25 00:11:11;;;;;;;16.90;15.10;;;17.60;99.90;;;;;;5050339;28;20416;-90
2023/06/25 00:13:37;;;;;;;16.23;14.60;;;17.60;99.90;;;;;;5048204;28;20396;-89
2023/06/25 00:16:03;;;;;;;16.70;15.02;;;17.50;99.90;;;;;;5049987;28;20418;-90
2023/06/25 00:18:29;;;;;;;12.85;11.60;;;17.40;99.90;;;;;;5049624;28;20479;-89
2023/06/25 00:20:55;;;;;;;13.00;11.63;;;17.30;99.90;;;;;;5049913;28;20419;-91
2023/06/25 00:23:21;;;;;;;15.25;12.80;;;17.20;99.90;;;;;;5050150;28;20413;-89
2023/06/25 00:25:46;;;;;;;13.03;11.73;;;17.10;99.90;;;;;;5048801;28;20490;-90
2023/06/25 00:28:12;;;;;;;12.98;11.68;;;17.10;99.90;;;;;;5050116;28;20965;-89
2023/06/25 00:30:39;;;;;;;14.13;12.70;;;17.10;99.90;;;;;;5048220;28;20839;-89
2023/06/25 00:33:05;;;;;;;15.02;13.57;;;17.10;99.90;;;;;;5050235;28;20404;-90
2023/06/25 00:35:50;;;;;;;14.77;13.27;;;17.10;99.90;;;;;;5048761;28;20406;-89
2023/06/25 00:38:19;;;;;;;15.75;14.20;;;17.10;99.90;;;;;;5048917;28;20403;-90
2023/06/25 00:40:45;;;;;;;14.20;12.80;;;17.10;99.90;;;;;;5045259;28;20416;-89
2023/06/25 00:43:15;;;;;;;15.05;13.55;;;17.00;99.90;;;;;;5048368;28;20435;-90
2023/06/25 00:45:42;;;;;;;15.43;13.93;;;17.00;99.90;;;;;;5054060;28;20415;-89
2023/06/25 00:48:08;;;;;;;13.82;12.50;;;17.00;99.90;;;;;;5052529;28;20788;-90
2023/06/25 00:50:34;;;;;;;15.82;14.13;;;17.00;99.90;;;;;;5070265;28;20776;-89
2023/06/25 00:53:02;;;;;;;16.52;14.93;;;17.00;99.90;;;;;;5052483;28;20458;-90
2023/06/25 00:55:28;;;;;;;14.80;13.43;;;17.00;99.90;;;;;;5053071;28;20825;-90
2023/06/25 00:57:55;;;;;;;15.53;14.03;;;17.00;99.90;;;;;;5070123;28;20399;-90
2023/06/25 01:00:25;;;;;;;14.85;13.43;;;17.00;99.90;;;;;;5052017;28;20407;-90
2023/06/25 01:03:08;;;;;;;15.77;14.23;;;16.90;99.90;;;;;;5053594;28;20427;-90
2023/06/25 01:05:57;;;;;;;14.32;12.85;;;16.80;99.90;;;;;;5052303;28;20808;-91
2023/06/25 01:08:28;;;;;;;13.75;12.35;;;16.80;99.90;;;;;;5069805;28;20447;-90
2023/06/25 01:10:55;;;;;;;14.30;12.90;;;16.80;99.90;;;;;;5053608;28;20424;-90
2023/06/25 01:13:21;;;;;;;14.50;13.10;;;16.80;99.90;;;;;;5051731;28;20438;-90
2023/06/25 01:15:47;;;;;;;14.87;13.40;;;16.80;99.90;;;;;;5053711;28;20447;-90
2023/06/25 01:18:14;;;;;;;14.68;13.18;;;16.70;99.90;;;;;;5051848;28;20455;-89
2023/06/25 01:20:40;;;;;;;14.68;13.27;;;16.70;99.90;;;;;;5053411;28;20479;-90
2023/06/25 01:23:07;;;;;;;15.50;13.95;;;16.80;99.90;;;;;;5052239;28;20414;-90
2023/06/25 01:25:36;;;;;;;16.08;14.43;;;16.80;99.90;;;;;;5052905;28;20415;-90
2023/06/25 01:28:02;;;;;;;15.55;14.05;;;16.70;99.90;;;;;;5053291;28;20418;-90
2023/06/25 01:30:31;;;;;;;16.27;14.63;;;16.80;99.90;;;;;;5051799;28;20427;-91
2023/06/25 01:32:57;;;;;;;19.05;17.23;;;17.00;99.90;;;;;;5052883;28;20423;-90
2023/06/25 01:35:24;;;;;;;16.08;14.48;;;16.70;99.90;;;;;;5051240;28;20919;-91
2023/06/25 01:37:50;;;;;;;15.20;13.70;;;16.70;99.90;;;;;;5053263;28;20404;-91
2023/06/25 01:40:16;;;;;;;17.77;15.30;;;16.70;99.90;;;;;;5052026;28;20943;-89
2023/06/25 01:42:43;;;;;;;16.65;14.77;;;16.50;99.90;;;;;;5052962;28;20407;-90
2023/06/25 01:45:09;;;;;;;15.27;13.68;;;16.50;99.90;;;;;;5052573;28;20416;-90
2023/06/25 01:47:37;;;;;;;15.93;14.27;;;16.50;99.90;;;;;;5051545;28;20410;-89
2023/06/25 01:50:04;;;;;;;15.30;13.73;;;16.40;99.90;;;;;;5053004;28;20585;-89
2023/06/25 01:52:30;;;;;;;16.60;14.90;;;16.40;99.90;;;;;;5050842;28;20400;-90
2023/06/25 01:54:55;;;;;;;15.85;14.25;;;16.20;99.90;;;;;;5052552;28;20490;-90
2023/06/25 01:57:21;;;;;;;16.33;14.73;;;16.40;99.90;;;;;;5051111;28;20486;-89
2023/06/25 01:59:47;;;;;;;16.65;14.82;;;16.40;99.90;;;;;;5052390;28;20411;-89
2023/06/25 02:02:13;;;;;;;17.55;15.75;;;16.40;99.90;;;;;;5051548;28;20824;-90
2023/06/25 02:04:38;;;;;;;18.63;16.27;;;16.40;99.90;;;;;;5067995;28;20776;-90
2023/06/25 02:07:04;;;;;;;16.45;14.75;;;16.60;99.90;;;;;;5052470;28;20498;-89
2023/06/25 02:09:30;;;;;;;20.88;18.70;;;16.30;99.90;;;;;;5050777;28;20432;-90
2023/06/25 02:11:56;;;;;;;18.67;16.87;;;16.30;99.90;;;;;;5052652;28;20438;-90
2023/06/25 02:14:21;;;;;;;17.38;15.77;;;16.50;99.90;;;;;;5050424;28;20391;-89
2023/06/25 02:16:47;;;;;;;15.77;14.17;;;16.40;99.90;;;;;;5052107;28;20415;-89
2023/06/25 02:19:13;;;;;;;18.80;17.00;;;16.30;99.90;;;;;;5067484;28;20407;-88
2023/06/25 02:21:38;;;;;;;18.98;17.02;;;16.10;99.90;;;;;;5051998;28;20415;-91
2023/06/25 02:24:04;;;;;;;21.50;19.23;;;16.10;99.90;;;;;;5052310;28;20404;-90
2023/06/25 02:26:30;;;;;;;18.75;16.85;;;16.10;99.90;;;;;;5050369;28;20435;-90
2023/06/25 02:28:56;;;;;;;18.95;17.05;;;16.10;99.90;;;;;;5052504;28;20416;-91
2023/06/25 02:31:21;;;;;;;16.50;14.90;;;16.10;99.90;;;;;;5050096;28;20470;-88
2023/06/25 02:33:47;;;;;;;18.97;16.97;;;16.30;99.90;;;;;;5052158;28;20422;-89
2023/06/25 02:36:13;;;;;;;18.35;16.40;;;16.20;99.90;;;;;;5050459;28;20404;-89
2023/06/25 02:38:39;;;;;;;18.87;16.87;;;16.20;99.90;;;;;;5052165;28;20439;-90
2023/06/25 02:41:04;;;;;;;19.92;17.90;;;16.00;99.90;;;;;;5050858;28;20400;-90
2023/06/25 02:43:31;;;;;;;21.50;19.30;;;16.00;99.90;;;;;;5050634;28;20485;-89
2023/06/25 02:45:56;;;;;;;19.55;17.50;;;16.00;99.90;;;;;;5051583;28;20427;-89
2023/06/25 02:48:22;;;;;;;21.37;19.07;;;16.00;99.90;;;;;;5050053;28;20939;-91
2023/06/25 02:50:48;;;;;;;18.38;16.50;;;16.00;99.90;;;;;;5068441;28;20489;-90
2023/06/25 02:53:14;;;;;;;17.38;15.68;;;16.20;99.90;;;;;;5049540;28;20395;-89
2023/06/25 02:55:40;;;;;;;19.13;16.85;;;16.00;99.90;;;;;;5051437;28;20411;-90
2023/06/25 02:58:06;;;;;;;19.40;17.50;;;16.10;99.90;;;;;;5050219;28;20457;-89
2023/06/25 03:00:32;;;;;;;19.67;17.67;;;16.00;99.90;;;;;;5050670;28;20527;-89
2023/06/25 03:02:58;;;;;;;19.93;17.83;;;16.10;99.90;;;;;;5050680;28;20408;-90
2023/06/25 03:05:23;;;;;;;18.70;16.88;;;16.30;99.90;;;;;;5050159;28;21038;-89
2023/06/25 03:07:54;;;;;;;20.92;18.73;;;16.00;99.90;;;;;;5050446;28;20892;-90
2023/06/25 03:10:27;;;;;;;19.77;17.77;;;16.10;99.90;;;;;;5065594;28;20431;-89
2023/06/25 03:12:52;;;;;;;16.95;15.27;;;16.00;99.90;;;;;;5051070;28;20438;-89
2023/06/25 03:15:18;;;;;;;19.07;17.27;;;16.00;99.90;;;;;;5065975;28;20407;-88
2023/06/25 03:17:45;;;;;;;19.00;17.10;;;16.00;99.90;;;;;;5050492;28;20967;-89
2023/06/25 03:20:11;;;;;;;20.33;18.20;;;16.30;99.90;;;;;;5050624;28;20408;-89
2023/06/25 03:22:37;;;;;;;21.38;19.27;;;16.00;99.90;;;;;;5049563;28;21350;-90
2023/06/25 03:25:03;;;;;;;19.88;17.85;;;16.00;99.90;;;;;;5067239;28;20435;-88
2023/06/25 03:27:32;;;;;;;18.35;16.48;;;16.00;99.90;;;;;;5048256;28;20814;-89
2023/06/25 03:29:58;;;;;;;19.92;17.92;;;16.00;99.90;;;;;;5050085;28;20522;-89
2023/06/25 03:32:23;;;;;;;19.65;17.65;;;16.00;99.90;;;;;;5048629;28;20408;-88
2023/06/25 03:34:51;;;;;;;18.55;16.75;;;16.20;99.90;;;;;;5049445;28;20416;-89
2023/06/25 03:37:17;;;;;;;18.60;16.75;;;16.00;99.90;;;;;;5050106;28;20430;-89
2023/06/25 03:39:43;;;;;;;18.30;16.53;;;16.10;99.90;;;;;;5049035;28;20818;-89
2023/06/25 03:42:09;;;;;;;21.25;19.05;;;16.00;99.90;;;;;;5050200;28;21112;-89
2023/06/25 03:44:34;;;;;;;19.38;17.48;;;16.00;99.90;;;;;;5048226;28;20404;-88
2023/06/25 03:47:00;;;;;;;20.50;17.93;;;16.10;99.90;;;;;;5050060;28;20422;-89
2023/06/25 03:49:26;;;;;;;18.63;16.67;;;16.10;99.90;;;;;;5065183;28;20846;-88
2023/06/25 03:51:52;;;;;;;18.27;16.48;;;16.40;99.90;;;;;;5049873;28;20412;-89
2023/06/25 03:54:17;;;;;;;21.73;19.47;;;16.10;99.90;;;;;;5049414;28;20768;-89
2023/06/25 03:56:43;;;;;;;22.08;19.80;;;16.30;99.90;;;;;;5049432;28;20416;-89
2023/06/25 03:59:08;;;;;;;20.67;18.47;;;16.10;99.90;;;;;;5049909;28;20545;-89
2023/06/25 04:01:34;;;;;;;19.20;17.23;;;16.10;99.90;;;;;;5048648;28;20415;-89
2023/06/25 04:04:00;;;;;;;22.30;19.90;;;16.40;99.90;;;;;;5066810;28;20498;-89
2023/06/25 04:06:25;;;;;;;24.02;21.20;;;16.20;99.90;;;;;;5048884;28;20412;-90
2023/06/25 04:08:51;;;;;;;23.23;20.27;;;16.30;99.90;;;;;;5066859;28;20416;-90
2023/06/25 04:11:17;;;;;;;21.08;18.77;;;16.50;99.90;;;;;;5048693;28;20962;-88
2023/06/25 04:13:42;;;;;;;23.53;20.70;;;16.40;99.90;;;;;;5049886;28;20422;-90
2023/06/25 04:16:09;;;;;;;22.43;20.03;;;16.60;99.90;;;;;;5049684;28;20422;-88
2023/06/25 04:18:37;;;;;;;21.27;18.52;;;16.70;99.90;;;;;;5048798;28;20486;-89
2023/06/25 04:21:03;;;;;;;22.75;20.15;;;16.50;99.90;;;;;;5049949;28;20498;-89
2023/06/25 04:23:29;;;;;;;22.67;20.05;;;16.70;99.90;;;;;;5048289;28;21233;-89
2023/06/25 04:25:55;;;;;;;19.10;17.10;;;16.70;99.90;;;;;;5050277;28;20411;-90
2023/06/25 04:28:20;;;;;;;19.17;17.17;;;16.90;99.90;;;;;;5048800;28;20403;-90
2023/06/25 04:30:46;;;;;;;20.13;17.97;;;17.10;99.90;;;;;;5049605;28;20435;-90
2023/06/25 04:33:12;;;;;;;19.63;17.63;;;17.10;99.90;;;;;;5048910;28;20479;-89
2023/06/25 04:35:37;;;;;;;19.33;16.85;;;17.20;99.90;;;;;;5048940;28;20499;-88
2023/06/25 04:38:03;;;;;;;19.17;17.13;;;17.30;99.90;;;;;;5050113;28;20498;-90
2023/06/25 04:40:29;;;;;;;20.50;18.15;;;17.50;99.90;;;;;;5049053;28;20407;-91
2023/06/25 04:42:54;;;;;;;19.53;17.53;;;17.60;99.90;;;;;;5050261;28;20408;-90
2023/06/25 04:45:20;;;;;;;19.00;17.00;;;18.00;99.90;;;;;;5047909;28;20408;-91
2023/06/25 04:47:46;;;;;;;18.93;16.87;;;18.00;99.90;;;;;;5049876;28;20438;-90
2023/06/25 04:50:12;;;;;;;19.95;17.23;;;18.20;99.90;;;;;;5048725;28;20569;-90
2023/06/25 04:52:37;;;;;;;17.67;15.98;;;18.30;99.90;;;;;;5049247;28;20423;-90
2023/06/25 04:55:03;;;;;;;17.50;15.70;;;18.70;99.90;;;;;;5049611;28;20408;-90
2023/06/25 04:57:30;;;;;;;17.73;15.98;;;18.60;99.90;;;;;;5048692;28;20446;-90
2023/06/25 04:59:56;;;;;;;17.40;15.57;;;18.60;99.90;;;;;;5050607;28;20411;-91
2023/06/25 05:02:22;;;;;;;16.70;15.00;;;18.90;99.90;;;;;;5047164;28;20951;-89
2023/06/25 05:04:48;;;;;;;16.17;14.47;;;19.00;99.90;;;;;;5065034;28;20775;-89
2023/06/25 05:07:13;;;;;;;15.35;13.75;;;19.20;99.90;;;;;;5047076;28;20909;-89
2023/06/25 05:09:39;;;;;;;16.80;14.03;;;19.20;99.90;;;;;;5047477;28;20518;-90
2023/06/25 05:12:05;;;;;;;16.00;13.93;;;19.40;99.90;;;;;;5048142;28;20411;-89
2023/06/25 05:14:31;;;;;;;14.45;13.07;;;19.50;99.90;;;;;;5047485;28;20411;-88
2023/06/25 05:16:57;;;;;;;14.35;12.95;;;19.80;99.90;;;;;;5048201;28;20403;-89
2023/06/25 05:19:23;;;;;;;14.60;13.10;;;19.90;99.90;;;;;;5064041;28;20917;-90
2023/06/25 05:21:48;;;;;;;13.77;12.38;;;20.00;99.90;;;;;;5048524;28;20493;-87
2023/06/25 05:24:14;;;;;;;12.73;11.43;;;20.10;99.90;;;;;;5063001;28;20411;-88
2023/06/25 05:26:39;;;;;;;13.32;11.93;;;20.20;99.90;;;;;;5064162;28;20772;-86
2023/06/25 05:29:05;;;;;;;12.43;11.13;;;20.40;99.90;;;;;;5062866;28;20440;-86
2023/06/25 05:31:31;;;;;;;12.15;10.95;;;20.50;99.90;;;;;;5066978;28;20431;-86
2023/06/25 05:33:56;;;;;;;12.97;11.67;;;20.80;99.90;;;;;;5048455;28;21086;-91
2023/06/25 05:36:23;;;;;;;12.25;11.05;;;20.70;99.90;;;;;;5067014;28;20777;-90
2023/06/25 05:38:48;;;;;;;11.52;10.43;;;21.10;99.90;;;;;;5068501;28;20430;-87
2023/06/25 05:41:14;;;;;;;11.23;9.93;;;20.90;99.90;;;;;;5049819;28;20416;-85
2023/06/25 05:43:39;;;;;;;11.40;10.30;;;21.00;99.90;;;;;;5067870;28;20412;-87
2023/06/25 05:46:05;;;;;;;10.40;9.40;;;21.10;99.90;;;;;;5065869;28;20495;-88
2023/06/25 05:48:31;;;;;;;10.15;9.18;;;21.20;99.90;;;;;;5034563;28;20412;-87
2023/06/25 05:50:56;;;;;;;10.52;9.43;;;21.50;99.90;;;;;;5066891;28;20512;-87
2023/06/25 05:53:27;;;;;;;9.90;8.90;;;21.70;99.90;;;;;;5049972;28;20404;-87
2023/06/25 05:55:53;;;;;;;9.85;8.85;;;21.50;99.90;;;;;;5050658;28;20392;-85
2023/06/25 05:58:19;;;;;;;9.90;8.02;;;21.50;99.90;;;;;;5066454;28;20929;-90
2023/06/25 06:00:44;;;;;;;8.40;7.60;;;21.70;99.90;;;;;;5068349;28;20412;-88
2023/06/25 06:03:10;;;;;;;9.30;8.43;;;22.10;99.90;;;;;;5066612;28;20420;-90
2023/06/25 06:05:35;;;;;;;8.40;7.60;;;22.30;99.90;;;;;;5067289;28;21014;-90
2023/06/25 06:08:01;;;;;;;7.90;7.20;;;22.20;99.90;;;;;;5049272;28;20410;-86
2023/06/25 06:10:26;;;;;;;7.53;6.83;;;22.30;99.90;;;;;;5067869;28;20474;-88
2023/06/25 06:12:52;;;;;;;8.63;6.70;;;22.30;99.90;;;;;;5067469;28;20412;-85
2023/06/25 06:15:18;;;;;;;7.17;6.47;;;22.70;99.90;;;;;;5065715;28;20395;-90
2023/06/25 06:17:43;;;;;;;7.90;6.53;;;22.60;99.90;;;;;;5050829;28;20931;-87
2023/06/25 06:20:09;;;;;;;6.97;6.18;;;22.70;99.90;;;;;;5066099;28;20399;-89
2023/06/25 06:22:35;;;;;;;6.63;6.03;;;22.90;99.90;;;;;;5067113;28;20399;-88
2023/06/25 06:25:01;;;;;;;7.03;6.37;;;22.80;99.90;;;;;;5066575;28;20465;-88
2023/06/25 06:27:26;;;;;;;6.90;6.30;;;23.00;99.90;;;;;;5067351;28;20407;-88
2023/06/25 06:29:52;;;;;;;6.75;5.97;;;23.20;99.90;;;;;;5066974;28;20432;-87
2023/06/25 06:32:17;;;;;;;7.63;6.80;;;23.20;99.90;;;;;;5049078;28;20424;-90
2023/06/25 06:34:43;;;;;;;8.30;7.22;;;23.30;99.90;;;;;;5067986;28;20416;-91
2023/06/25 06:37:08;;;;;;;7.87;7.07;;;23.40;99.90;;;;;;5065133;28;20419;-89
2023/06/25 06:39:34;;;;;;;9.53;7.43;;;23.30;99.90;;;;;;5067010;28;20411;-87
2023/06/25 06:42:00;;;;;;;8.48;7.50;;;23.50;99.90;;;;;;5048588;28;20418;-86
2023/06/25 06:44:25;;;;;;;8.67;7.43;;;23.50;99.90;;;;;;5050398;28;20485;-86
2023/06/25 06:46:51;;;;;;;8.80;7.97;;;23.90;99.90;;;;;;5065516;28;20414;-89
2023/06/25 06:49:17;;;;;;;9.70;8.70;;;23.70;99.90;;;;;;5065709;28;21104;-86
2023/06/25 06:51:43;;;;;;;9.23;8.23;;;23.50;99.90;;;;;;5062463;28;20926;-88
2023/06/25 06:54:09;;;;;;;9.47;8.50;;;23.50;99.90;;;;;;5030763;28;20406;-87
2023/06/25 06:56:35;;;;;;;9.90;8.65;;;23.90;99.90;;;;;;5036243;28;20497;-89
2023/06/25 06:59:00;;;;;;;10.13;9.23;;;23.90;99.90;;;;;;5030605;28;20440;-87
2023/06/25 07:01:26;;;;;;;10.40;9.33;;;24.00;99.90;;;;;;5036728;28;20417;-86
2023/06/25 07:03:52;;;;;;;10.15;9.23;;;24.00;99.90;;;;;;5054401;28;20415;-86
2023/06/25 07:06:18;;;;;;;10.45;9.45;;;24.10;99.90;;;;;;5048681;28;20478;-87
2023/06/25 07:08:44;;;;;;;10.17;9.27;;;24.50;99.90;;;;;;5045322;28;20428;-85
2023/06/25 07:11:09;;;;;;;11.75;9.63;;;24.30;99.90;;;;;;5044985;28;20941;-89
2023/06/25 07:13:35;;;;;;;9.60;8.70;;;24.50;99.90;;;;;;5029852;28;20414;-90
2023/06/25 07:16:00;;;;;;;10.07;8.97;;;24.70;99.90;;;;;;5027835;28;20477;-86
2023/06/25 07:18:26;;;;;;;10.10;9.20;;;24.80;99.90;;;;;;5046912;28;20420;-89
2023/06/25 07:20:52;;;;;;;10.40;9.50;;;25.20;99.90;;;;;;5044109;28;20818;-88
2023/06/25 07:23:17;;;;;;;10.85;9.75;;;25.00;99.70;;;;;;5045992;28;20418;-88
2023/06/25 07:25:43;;;;;;;11.23;10.13;;;25.10;99.90;;;;;;5029375;28;20459;-86
2023/06/25 07:28:09;;;;;;;12.20;10.60;;;24.90;99.70;;;;;;5045452;28;20727;-88
2023/06/25 07:30:35;;;;;;;11.93;10.88;;;25.20;97.90;;;;;;5046089;28;20426;-88
2023/06/25 07:33:00;;;;;;;11.77;10.68;;;25.20;96.50;;;;;;5056794;28;20410;-88
2023/06/25 07:35:26;;;;;;;10.93;10.03;;;25.30;98.40;;;;;;5065851;28;20856;-89
2023/06/25 07:37:52;;;;;;;10.00;9.10;;;25.40;99.80;;;;;;5063858;28;21073;-88
2023/06/25 07:40:17;;;;;;;11.95;10.85;;;25.30;97.90;;;;;;5066124;28;20410;-93
2023/06/25 07:42:43;;;;;;;12.20;11.00;;;25.40;96.00;;;;;;5048606;28;20815;-92
2023/06/25 07:45:09;;;;;;;11.98;10.93;;;25.60;97.50;;;;;;5049486;28;20895;-89
2023/06/25 07:47:35;;;;;;;12.25;10.77;;;25.40;96.00;;;;;;5065726;28;20408;-89
2023/06/25 07:50:01;;;;;;;12.00;10.90;;;25.50;97.50;;;;;;5048694;28;20428;-89
2023/06/25 07:52:27;;;;;;;11.70;10.63;;;25.50;96.90;;;;;;5065305;28;20419;-89
2023/06/25 07:54:53;;;;;;;12.57;11.23;;;25.60;98.20;;;;;;5063794;28;20435;-87
2023/06/25 07:57:19;;;;;;;11.88;10.65;;;25.70;98.40;;;;;;5066083;28;21135;-87
2023/06/25 07:59:45;;;;;;;12.48;10.98;;;25.80;99.90;;;;;;5064992;28;20462;-92
2023/06/25 08:02:10;;;;;;;11.53;10.33;;;25.90;98.00;;;;;;5065324;28;20395;-88
2023/06/25 08:04:36;;;;;;;16.05;11.25;;;26.30;96.00;;;;;;5064639;28;20399;-88
2023/06/25 08:07:02;;;;;;;11.70;10.53;;;26.20;97.70;;;;;;5048400;28;20468;-88
2023/06/25 08:09:28;;;;;;;12.50;11.30;;;26.40;98.30;;;;;;5066252;28;20419;-89
2023/06/25 08:11:53;;;;;;;11.97;10.77;;;26.50;97.10;;;;;;5047657;28;20395;-87
2023/06/25 08:14:19;;;;;;;11.10;10.18;;;26.60;94.80;;;;;;5065217;28;20935;-86
2023/06/25 08:16:45;;;;;;;11.87;10.83;;;26.70;92.80;;;;;;5064608;28;20415;-88
2023/06/25 08:19:10;;;;;;;11.25;10.25;;;26.80;95.00;;;;;;5065830;28;20404;-87
2023/06/25 08:21:36;;;;;;;10.57;9.60;;;26.90;93.70;;;;;;5064102;28;20403;-88
2023/06/25 08:24:01;;;;;;;10.80;9.70;;;27.00;96.80;;;;;;5065023;28;20415;-87
2023/06/25 08:26:27;;;;;;;10.38;9.50;;;27.20;96.10;;;;;;5064630;28;20576;-88
2023/06/25 08:28:53;;;;;;;10.40;9.40;;;27.40;94.50;;;;;;5063865;28;20412;-90
2023/06/25 08:31:19;;;;;;;9.88;8.98;;;27.60;90.30;;;;;;5065526;28;20515;-91
2023/06/25 08:33:44;;;;;;;9.20;8.50;;;27.70;80.20;;;;;;5063437;28;20494;-91
2023/06/25 08:36:10;;;;;;;11.70;9.52;;;27.60;83.20;;;;;;5066562;28;20971;-89
2023/06/25 08:38:36;;;;;;;8.98;7.68;;;27.80;75.10;;;;;;5064298;28;20435;-88
2023/06/25 08:41:02;;;;;;;8.43;7.80;;;27.80;72.80;;;;;;5064468;28;20400;-89
2023/06/25 08:43:28;;;;;;;9.70;8.80;;;27.90;68.80;;;;;;5064702;28;20435;-89
2023/06/25 08:45:54;;;;;;;15.90;9.00;;;27.90;72.60;;;;;;5064410;28;20408;-89
2023/06/25 08:48:23;;;;;;;8.90;8.02;;;28.00;74.60;;;;;;5065361;28;20434;-88
2023/06/25 08:50:56;;;;;;;14.05;8.90;;;28.10;75.50;;;;;;5063148;28;20438;-92
2023/06/25 08:53:25;;;;;;;7.70;6.82;;;28.20;77.30;;;;;;5064943;28;20473;-89
2023/06/25 08:55:51;;;;;;;7.00;6.38;;;28.40;69.00;;;;;;5047053;28;20396;-91
2023/06/25 08:58:17;;;;;;;10.25;6.63;;;28.40;61.90;;;;;;5048275;28;20438;-88
2023/06/25 09:00:42;;;;;;;7.63;6.43;;;28.50;67.20;;;;;;5064833;28;20840;-88
2023/06/25 09:03:08;;;;;;;6.60;6.00;;;28.70;64.70;;;;;;5064866;28;20852;-91
2023/06/25 09:05:34;;;;;;;6.75;6.00;;;28.60;56.30;;;;;;5051967;28;20406;-87
2023/06/25 09:08:00;;;;;;;7.57;5.10;;;28.60;56.60;;;;;;5051652;28;20404;-90
2023/06/25 09:10:30;;;;;;;5.72;5.22;;;28.70;61.70;;;;;;5069727;28;20436;-90
2023/06/25 09:12:56;;;;;;;6.18;5.57;;;28.80;58.80;;;;;;5050706;28;20451;-87
2023/06/25 09:15:23;;;;;;;6.47;5.88;;;28.90;56.90;;;;;;5069264;28;20489;-92
2023/06/25 09:17:53;;;;;;;6.10;5.53;;;28.80;56.80;;;;;;5067621;28;20435;-90
2023/06/25 09:20:23;;;;;;;5.80;5.20;;;28.80;56.10;;;;;;5068529;28;20896;-93
2023/06/25 09:22:56;;;;;;;5.18;4.68;;;28.90;54.50;;;;;;5052597;28;20921;-88
2023/06/25 09:25:29;;;;;;;5.63;4.63;;;29.10;55.80;;;;;;5067878;28;20477;-90
2023/06/25 09:27:57;;;;;;;4.03;3.40;;;29.20;50.70;;;;;;5063580;28;20411;-90
2023/06/25 09:30:23;;;;;;;5.13;4.55;;;29.20;48.70;;;;;;5067790;28;20463;-90
2023/06/25 09:32:54;;;;;;;6.97;4.78;;;29.20;51.30;;;;;;5068440;28;20489;-95
2023/06/25 09:35:20;;;;;;;6.05;5.45;;;29.30;51.20;;;;;;5068323;28;20896;-88
2023/06/25 09:37:45;;;;;;;5.57;4.70;;;29.50;51.50;;;;;;5051223;28;20465;-89
2023/06/25 09:40:11;;;;;;;5.67;4.50;;;29.60;51.60;;;;;;5068828;28;20442;-92
2023/06/25 09:42:39;;;;;;;10.38;5.38;;;29.70;51.60;;;;;;5050518;28;20454;-90
2023/06/25 09:45:08;;;;;;;6.30;5.50;;;29.80;50.70;;;;;;5068996;28;20423;-89
2023/06/25 09:47:36;;;;;;;5.93;5.35;;;29.80;50.30;;;;;;5050490;28;20499;-90
2023/06/25 09:50:07;;;;;;;5.57;4.60;;;29.90;51.40;;;;;;5051666;28;20467;-92
2023/06/25 09:52:33;;;;;;;5.55;4.60;;;30.10;51.50;;;;;;5068111;28;20434;-87
2023/06/25 09:55:02;;;;;;;13.95;5.75;;;30.20;50.40;;;;;;5068038;28;20400;-92
2023/06/25 09:57:28;;;;;;;5.63;4.80;;;30.40;48.30;;;;;;5068800;28;20419;-89
2023/06/25 09:59:54;;;;;;;4.95;4.55;;;30.50;48.40;;;;;;5050536;28;20408;-89
2023/06/25 10:02:20;;;;;;;4.53;4.13;;;30.60;47.00;;;;;;5052068;28;20399;-94
2023/06/25 10:04:46;;;;;;;5.47;4.97;;;30.70;49.60;;;;;;5050208;28;20400;-89
2023/06/25 10:07:12;;;;;;;4.63;4.23;;;30.80;46.80;;;;;;5068891;28;20729;-88
2023/06/25 10:09:38;;;;;;;5.18;3.75;;;31.00;48.50;;;;;;5049119;28;20426;-90
2023/06/25 10:12:04;;;;;;;7.67;4.73;;;31.10;45.00;;;;;;5050685;28;20415;-91
2023/06/25 10:14:38;;;;;;;27.80;5.72;;;31.30;46.70;;;;;;5068029;28;20930;-90
2023/06/25 10:17:05;;;;;;;7.65;4.90;;;31.50;47.20;;;;;;5066629;28;20420;-88
2023/06/25 10:19:30;;;;;;;5.57;4.82;;;31.40;43.40;;;;;;5067963;28;20510;-88
2023/06/25 10:22:10;;;;;;;9.52;4.57;;;31.60;44.90;;;;;;5048673;28;20487;-89
2023/06/25 10:24:51;;;;;;;4.13;3.53;;;31.80;44.80;;;;;;5066651;28;20430;-89
2023/06/25 10:27:26;;;;;;;4.15;3.65;;;32.10;44.40;;;;;;5050714;28;20788;-88
2023/06/25 10:29:53;;;;;;;5.97;3.23;;;32.20;42.60;;;;;;5065246;28;20431;-88
2023/06/25 10:32:23;;;;;;;4.35;3.10;;;32.40;42.80;;;;;;5067025;28;20481;-90
2023/06/25 10:35:01;;;;;;;4.35;3.75;;;32.50;44.10;;;;;;5064858;28;20416;-86
2023/06/25 10:37:30;;;;;;;4.80;4.40;;;32.60;44.60;;;;;;5066923;28;20761;-89
2023/06/25 10:40:08;;;;;;;4.20;3.50;;;32.80;40.40;;;;;;5049915;28;20834;-90
2023/06/25 10:42:36;;;;;;;4.18;3.78;;;33.00;42.00;;;;;;5066318;28;20447;-88
2023/06/25 10:45:03;;;;;;;4.18;3.58;;;33.00;39.20;;;;;;5067664;28;20438;-93
2023/06/25 10:47:29;;;;;;;4.28;3.40;;;33.10;40.70;;;;;;5065227;28;20404;-92
2023/06/25 10:49:54;;;;;;;3.70;3.40;;;33.30;40.40;;;;;;5067449;28;20457;-87
2023/06/25 10:52:21;;;;;;;3.57;3.27;;;33.40;39.60;;;;;;5049138;28;20435;-89
2023/06/25 10:54:46;;;;;;;3.97;3.30;;;33.50;40.30;;;;;;5067451;28;20422;-88
2023/06/25 10:57:13;;;;;;;3.70;3.30;;;33.60;37.50;;;;;;5065628;28;20415;-90
2023/06/25 10:59:40;;;;;;;3.63;3.33;;;33.80;38.70;;;;;;5048966;28;20416;-87
2023/06/25 11:02:14;;;;;;;4.15;3.78;;;33.90;38.60;;;;;;5066170;28;20423;-91
2023/06/25 11:04:40;;;;;;;3.33;3.03;;;34.10;38.50;;;;;;5049293;28;20419;-91
2023/06/25 11:07:05;;;;;;;3.90;3.20;;;34.40;39.50;;;;;;5067161;28;20457;-94
2023/06/25 11:09:32;;;;;;;3.65;3.10;;;34.50;37.90;;;;;;5048546;28;20408;-87
2023/06/25 11:11:57;;;;;;;4.15;3.38;;;34.80;38.30;;;;;;5066469;28;21300;-89
2023/06/25 11:14:23;;;;;;;3.40;3.00;;;35.00;36.90;;;;;;5065703;28;20396;-89
2023/06/25 11:16:49;;;;;;;3.38;2.95;;;35.10;37.20;;;;;;5066276;28;20445;-91
2023/06/25 11:19:15;;;;;;;3.53;3.20;;;35.30;36.50;;;;;;5050710;28;20408;-90
2023/06/25 11:21:40;;;;;;;3.27;2.97;;;35.30;35.30;;;;;;5048970;28;20411;-93
2023/06/25 11:24:10;;;;;;;3.90;3.00;;;35.40;37.20;;;;;;5066646;28;20822;-89
2023/06/25 11:26:42;;;;;;;3.75;3.10;;;35.40;36.60;;;;;;5064518;28;20450;-89
2023/06/25 11:29:12;;;;;;;3.75;3.13;;;35.60;35.10;;;;;;5065245;28;20411;-91
2023/06/25 11:31:44;;;;;;;3.30;3.00;;;35.60;37.20;;;;;;5048684;28;20442;-88
2023/06/25 11:34:23;;;;;;;3.97;2.90;;;35.80;38.20;;;;;;5035225;28;20947;-89
2023/06/25 11:36:49;;;;;;;5.07;2.67;;;36.10;35.30;;;;;;5063635;28;20479;-89
2023/06/25 11:39:15;;;;;;;3.10;2.10;;;36.50;35.70;;;;;;5067559;28;20394;-91
2023/06/25 11:41:42;;;;;;;2.50;2.20;;;36.60;33.20;;;;;;5052437;28;20763;-88
2023/06/25 11:44:18;;;;;;;2.80;2.28;;;36.80;35.00;;;;;;5067128;28;20405;-89
2023/06/25 11:46:51;;;;;;;3.13;2.10;;;37.00;34.30;;;;;;5068925;28;20410;-87
2023/06/25 11:49:18;;;;;;;2.22;2.03;;;36.90;32.30;;;;;;5068507;28;20418;-89
2023/06/25 11:51:44;;;;;;;2.60;2.28;;;37.10;33.60;;;;;;5067062;28;20431;-91
2023/06/25 11:54:10;;;;;;;3.00;2.33;;;37.20;33.70;;;;;;5051862;28;20439;-89
2023/06/25 11:56:36;;;;;;;5.97;2.60;;;37.40;31.90;;;;;;5067077;28;20402;-88
2023/06/25 11:59:02;;;;;;;3.37;2.40;;;37.50;32.70;;;;;;5052374;28;20398;-88
2023/06/25 12:01:29;;;;;;;2.90;2.20;;;37.70;31.20;;;;;;5067021;28;20414;-91
2023/06/25 12:03:56;;;;;;;3.20;2.20;;;37.90;33.50;;;;;;5068884;28;20413;-90
2023/06/25 12:06:23;;;;;;;2.80;2.40;;;38.00;31.10;;;;;;5052182;28;20410;-92
2023/06/25 12:08:49;;;;;;;2.75;2.45;;;38.10;29.60;;;;;;5068547;28;20457;-91
2023/06/25 12:11:14;;;;;;;2.70;2.50;;;38.10;28.90;;;;;;5068054;28;20444;-90
2023/06/25 12:13:40;;;;;;;2.90;2.47;;;38.00;29.10;;;;;;5050623;28;20417;-89
2023/06/25 12:16:05;;;;;;;3.10;2.40;;;38.00;29.00;;;;;;5052448;28;20741;-88
2023/06/25 12:18:31;;;;;;;2.60;2.30;;;38.00;29.10;;;;;;5085549;28;20938;-91
2023/06/25 12:20:57;;;;;;;3.03;2.43;;;37.90;31.00;;;;;;5052388;28;20459;-95
2023/06/25 12:23:22;;;;;;;2.67;2.47;;;38.00;29.90;;;;;;5067488;28;20422;-88
2023/06/25 12:25:48;;;;;;;2.55;2.35;;;38.20;29.40;;;;;;5086294;28;20402;-87
2023/06/25 12:28:14;;;;;;;2.80;2.30;;;38.20;29.50;;;;;;5086083;28;20497;-88
2023/06/25 12:30:39;;;;;;;2.65;2.45;;;38.30;30.50;;;;;;5049848;28;20425;-91
2023/06/25 12:33:05;;;;;;;4.00;2.55;;;38.40;29.60;;;;;;5068790;28;20964;-89